sensor_id;sensor_type;location;lat;lon;timestamp;P1;durP1;ratioP1;P2;durP2;ratioP2
70075;SDS011;63241;51.056;3.698;2023-06-10T00:11:14;9.48;;;7.33;;
70075;SDS011;63241;51.056;3.698;2023-06-10T00:14:11;9.53;;;7.53;;
70075;SDS011;63241;51.056;3.698;2023-06-10T00:20:27;13.70;;;7.45;;
70075;SDS011;63241;51.056;3.698;2023-06-10T00:23:15;13.83;;;6.97;;
70075;SDS011;63241;51.056;3.698;2023-06-10T00:32:34;11.15;;;7.10;;
70075;SDS011;63241;51.056;3.698;2023-06-10T00:35:21;8.85;;;6.87;;
70075;SDS011;63241;51.056;3.698;2023-06-10T00:38:08;11.35;;;7.62;;
70075;SDS011;63241;51.056;3.698;2023-06-10T00:44:55;9.68;;;7.42;;
70075;SDS011;63241;51.056;3.698;2023-06-10T00:47:40;8.73;;;6.75;;
70075;SDS011;63241;51.056;3.698;2023-06-10T00:50:27;11.50;;;7.17;;
70075;SDS011;63241;51.056;3.698;2023-06-10T02:34:15;13.70;;;9.00;;
70075;SDS011;63241;51.056;3.698;2023-06-10T02:37:02;14.38;;;8.43;;
70075;SDS011;63241;51.056;3.698;2023-06-10T02:39:49;11.97;;;8.10;;
70075;SDS011;63241;51.056;3.698;2023-06-10T02:48:52;12.85;;;8.38;;
70075;SDS011;63241;51.056;3.698;2023-06-10T02:51:39;9.93;;;8.38;;
70075;SDS011;63241;51.056;3.698;2023-06-10T02:54:25;12.82;;;7.97;;
70075;SDS011;63241;51.056;3.698;2023-06-10T04:25:21;13.50;;;9.30;;
70075;SDS011;63241;51.056;3.698;2023-06-10T04:28:08;12.75;;;9.10;;
70075;SDS011;63241;51.056;3.698;2023-06-10T04:37:16;13.50;;;9.05;;
70075;SDS011;63241;51.056;3.698;2023-06-10T04:40:02;13.98;;;8.68;;
70075;SDS011;63241;51.056;3.698;2023-06-10T04:42:49;10.48;;;8.83;;
70075;SDS011;63241;51.056;3.698;2023-06-10T04:45:47;16.55;;;8.65;;
70075;SDS011;63241;51.056;3.698;2023-06-10T04:51:41;10.50;;;8.78;;
70075;SDS011;63241;51.056;3.698;2023-06-10T04:54:28;9.20;;;8.30;;
70075;SDS011;63241;51.056;3.698;2023-06-10T04:57:14;9.70;;;8.55;;
70075;SDS011;63241;51.056;3.698;2023-06-10T05:00:17;12.25;;;8.10;;
70075;SDS011;63241;51.056;3.698;2023-06-10T05:06:20;11.33;;;8.08;;
70075;SDS011;63241;51.056;3.698;2023-06-10T05:09:07;11.53;;;8.28;;
70075;SDS011;63241;51.056;3.698;2023-06-10T06:00:45;8.50;;;7.60;;
70075;SDS011;63241;51.056;3.698;2023-06-10T06:03:31;11.83;;;7.85;;
70075;SDS011;63241;51.056;3.698;2023-06-10T06:06:18;10.18;;;7.62;;
70075;SDS011;63241;51.056;3.698;2023-06-10T06:09:05;17.48;;;7.80;;
70075;SDS011;63241;51.056;3.698;2023-06-10T06:11:51;11.20;;;7.53;;
70075;SDS011;63241;51.056;3.698;2023-06-10T06:14:38;8.73;;;7.83;;
70075;SDS011;63241;51.056;3.698;2023-06-10T06:20:20;11.78;;;7.35;;
70075;SDS011;63241;51.056;3.698;2023-06-10T06:23:07;8.13;;;7.33;;
70075;SDS011;63241;51.056;3.698;2023-06-10T06:25:55;8.48;;;7.33;;
70075;SDS011;63241;51.056;3.698;2023-06-10T06:28:55;8.13;;;7.28;;
70075;SDS011;63241;51.056;3.698;2023-06-10T06:31:45;9.88;;;7.58;;
70075;SDS011;63241;51.056;3.698;2023-06-10T06:34:39;11.10;;;7.90;;
70075;SDS011;63241;51.056;3.698;2023-06-10T06:37:25;12.80;;;8.23;;
70075;SDS011;63241;51.056;3.698;2023-06-10T06:40:12;9.40;;;6.90;;
70075;SDS011;63241;51.056;3.698;2023-06-10T06:43:15;9.13;;;8.23;;
70075;SDS011;63241;51.056;3.698;2023-06-10T06:46:17;14.47;;;7.80;;
70075;SDS011;63241;51.056;3.698;2023-06-10T06:49:03;8.28;;;7.47;;
70075;SDS011;63241;51.056;3.698;2023-06-10T06:51:50;10.65;;;7.45;;
70075;SDS011;63241;51.056;3.698;2023-06-10T06:54:48;8.50;;;7.55;;
70075;SDS011;63241;51.056;3.698;2023-06-10T07:01:07;10.23;;;7.80;;
70075;SDS011;63241;51.056;3.698;2023-06-10T07:03:53;9.68;;;7.30;;
70075;SDS011;63241;51.056;3.698;2023-06-10T07:06:39;10.98;;;7.28;;
70075;SDS011;63241;51.056;3.698;2023-06-10T07:09:36;10.48;;;7.50;;
70075;SDS011;63241;51.056;3.698;2023-06-10T07:12:35;10.53;;;8.10;;
70075;SDS011;63241;51.056;3.698;2023-06-10T07:15:30;10.70;;;7.97;;
70075;SDS011;63241;51.056;3.698;2023-06-10T07:18:17;9.35;;;7.53;;
70075;SDS011;63241;51.056;3.698;2023-06-10T07:21:03;8.43;;;7.22;;
70075;SDS011;63241;51.056;3.698;2023-06-10T07:23:53;8.68;;;7.08;;
70075;SDS011;63241;51.056;3.698;2023-06-10T07:26:48;9.60;;;7.80;;
70075;SDS011;63241;51.056;3.698;2023-06-10T07:29:37;10.28;;;7.30;;
70075;SDS011;63241;51.056;3.698;2023-06-10T07:32:23;8.60;;;7.40;;
70075;SDS011;63241;51.056;3.698;2023-06-10T07:35:10;10.60;;;7.53;;
70075;SDS011;63241;51.056;3.698;2023-06-10T07:41:14;12.50;;;7.90;;
70075;SDS011;63241;51.056;3.698;2023-06-10T07:44:02;8.20;;;7.40;;
70075;SDS011;63241;51.056;3.698;2023-06-10T07:46:48;11.50;;;7.92;;
70075;SDS011;63241;51.056;3.698;2023-06-10T07:56:21;10.90;;;8.63;;
70075;SDS011;63241;51.056;3.698;2023-06-10T07:59:07;11.70;;;8.73;;
70075;SDS011;63241;51.056;3.698;2023-06-10T08:01:54;12.68;;;8.70;;
70075;SDS011;63241;51.056;3.698;2023-06-10T08:08:28;9.80;;;8.80;;
70075;SDS011;63241;51.056;3.698;2023-06-10T08:11:22;14.45;;;8.80;;
70075;SDS011;63241;51.056;3.698;2023-06-10T08:14:08;11.08;;;9.03;;
70075;SDS011;63241;51.056;3.698;2023-06-10T08:16:54;11.35;;;9.13;;
70075;SDS011;63241;51.056;3.698;2023-06-10T08:23:03;9.68;;;8.73;;
70075;SDS011;63241;51.056;3.698;2023-06-10T08:25:49;10.05;;;8.85;;
70075;SDS011;63241;51.056;3.698;2023-06-10T08:28:35;9.75;;;8.78;;
70075;SDS011;63241;51.056;3.698;2023-06-10T08:34:58;10.08;;;9.08;;
70075;SDS011;63241;51.056;3.698;2023-06-10T08:37:47;9.18;;;8.23;;
70075;SDS011;63241;51.056;3.698;2023-06-10T08:40:34;9.20;;;8.15;;
70075;SDS011;63241;51.056;3.698;2023-06-10T08:43:22;10.50;;;9.60;;
70075;SDS011;63241;51.056;3.698;2023-06-10T08:46:16;11.18;;;10.23;;
70075;SDS011;63241;51.056;3.698;2023-06-10T08:49:49;11.35;;;10.38;;
70075;SDS011;63241;51.056;3.698;2023-06-10T08:52:37;12.47;;;11.30;;
70075;SDS011;63241;51.056;3.698;2023-06-10T08:55:33;11.28;;;10.13;;
70075;SDS011;63241;51.056;3.698;2023-06-10T08:58:28;10.90;;;9.85;;
70075;SDS011;63241;51.056;3.698;2023-06-10T09:01:20;10.15;;;9.35;;
70075;SDS011;63241;51.056;3.698;2023-06-10T09:04:13;14.90;;;9.10;;
70075;SDS011;63241;51.056;3.698;2023-06-10T09:07:00;10.10;;;9.10;;
70075;SDS011;63241;51.056;3.698;2023-06-10T09:09:48;10.30;;;9.38;;
70075;SDS011;63241;51.056;3.698;2023-06-10T09:12:46;11.50;;;10.15;;
70075;SDS011;63241;51.056;3.698;2023-06-10T09:15:42;13.05;;;12.00;;
70075;SDS011;63241;51.056;3.698;2023-06-10T09:18:32;12.25;;;11.25;;
70075;SDS011;63241;51.056;3.698;2023-06-10T09:21:18;13.43;;;12.40;;
70075;SDS011;63241;51.056;3.698;2023-06-10T09:24:05;13.18;;;12.07;;
70075;SDS011;63241;51.056;3.698;2023-06-10T09:30:18;11.93;;;10.82;;
70075;SDS011;63241;51.056;3.698;2023-06-10T09:33:12;13.03;;;11.93;;
70075;SDS011;63241;51.056;3.698;2023-06-10T09:36:01;12.15;;;11.22;;
70075;SDS011;63241;51.056;3.698;2023-06-10T09:45:35;13.22;;;12.00;;
70075;SDS011;63241;51.056;3.698;2023-06-10T09:48:21;14.30;;;12.55;;
70075;SDS011;63241;51.056;3.698;2023-06-10T09:51:11;12.93;;;11.78;;
70075;SDS011;63241;51.056;3.698;2023-06-10T09:54:14;15.10;;;12.33;;
70075;SDS011;63241;51.056;3.698;2023-06-10T10:00:08;13.53;;;12.33;;
70075;SDS011;63241;51.056;3.698;2023-06-10T10:02:55;14.47;;;13.15;;
70075;SDS011;63241;51.056;3.698;2023-06-10T10:12:23;12.97;;;11.90;;
70075;SDS011;63241;51.056;3.698;2023-06-10T10:15:11;11.35;;;10.35;;
70075;SDS011;63241;51.056;3.698;2023-06-10T10:18:02;11.83;;;10.75;;
70075;SDS011;63241;51.056;3.698;2023-06-10T10:27:36;11.43;;;10.25;;
70075;SDS011;63241;51.056;3.698;2023-06-10T10:30:28;11.33;;;10.20;;
70075;SDS011;63241;51.056;3.698;2023-06-10T10:37:15;10.08;;;9.18;;
70075;SDS011;63241;51.056;3.698;2023-06-10T10:40:02;13.60;;;8.88;;
70075;SDS011;63241;51.056;3.698;2023-06-10T10:42:49;10.55;;;8.35;;
70075;SDS011;63241;51.056;3.698;2023-06-10T10:45:36;9.00;;;8.30;;
70075;SDS011;63241;51.056;3.698;2023-06-10T10:52:16;11.85;;;10.70;;
70075;SDS011;63241;51.056;3.698;2023-06-10T10:55:12;11.05;;;10.23;;
70075;SDS011;63241;51.056;3.698;2023-06-10T10:58:03;10.68;;;9.95;;
70075;SDS011;63241;51.056;3.698;2023-06-10T11:01:09;9.15;;;8.45;;
70075;SDS011;63241;51.056;3.698;2023-06-10T11:07:12;9.20;;;7.60;;
70075;SDS011;63241;51.056;3.698;2023-06-10T11:10:07;10.10;;;7.30;;
70075;SDS011;63241;51.056;3.698;2023-06-10T11:12:58;8.15;;;7.35;;
70075;SDS011;63241;51.056;3.698;2023-06-10T11:15:46;9.28;;;7.55;;
70075;SDS011;63241;51.056;3.698;2023-06-10T11:22:28;9.23;;;6.83;;
70075;SDS011;63241;51.056;3.698;2023-06-10T11:25:15;7.67;;;6.90;;
70075;SDS011;63241;51.056;3.698;2023-06-10T11:34:41;7.42;;;6.83;;
70075;SDS011;63241;51.056;3.698;2023-06-10T11:37:28;7.00;;;6.40;;
70075;SDS011;63241;51.056;3.698;2023-06-10T11:40:14;9.95;;;6.40;;
70075;SDS011;63241;51.056;3.698;2023-06-10T11:49:57;8.50;;;6.08;;
70075;SDS011;63241;51.056;3.698;2023-06-10T11:52:43;8.40;;;6.28;;
70075;SDS011;63241;51.056;3.698;2023-06-10T12:01:57;6.80;;;6.20;;
70075;SDS011;63241;51.056;3.698;2023-06-10T12:04:44;6.20;;;5.60;;
70075;SDS011;63241;51.056;3.698;2023-06-10T12:07:30;7.60;;;6.28;;
70075;SDS011;63241;51.056;3.698;2023-06-10T12:16:30;8.93;;;6.12;;
70075;SDS011;63241;51.056;3.698;2023-06-10T12:19:16;7.70;;;5.72;;
70075;SDS011;63241;51.056;3.698;2023-06-10T12:22:10;6.35;;;5.75;;
70075;SDS011;63241;51.056;3.698;2023-06-10T12:25:23;9.45;;;6.33;;
70075;SDS011;63241;51.056;3.698;2023-06-10T12:28:26;5.87;;;5.30;;
70075;SDS011;63241;51.056;3.698;2023-06-10T12:31:12;7.58;;;5.78;;
70075;SDS011;63241;51.056;3.698;2023-06-10T12:34:08;6.20;;;5.60;;
70075;SDS011;63241;51.056;3.698;2023-06-10T12:36:57;8.25;;;6.28;;
70075;SDS011;63241;51.056;3.698;2023-06-10T12:40:01;7.12;;;6.53;;
70075;SDS011;63241;51.056;3.698;2023-06-10T12:42:54;8.40;;;6.00;;
70075;SDS011;63241;51.056;3.698;2023-06-10T12:45:43;7.80;;;6.85;;
70075;SDS011;63241;51.056;3.698;2023-06-10T12:48:29;7.85;;;6.58;;
70075;SDS011;63241;51.056;3.698;2023-06-10T12:54:43;7.87;;;7.12;;
70075;SDS011;63241;51.056;3.698;2023-06-10T12:57:34;7.95;;;7.12;;
70075;SDS011;63241;51.056;3.698;2023-06-10T13:00:20;8.08;;;7.37;;
70075;SDS011;63241;51.056;3.698;2023-06-10T13:12:43;8.55;;;7.03;;
70075;SDS011;63241;51.056;3.698;2023-06-10T13:15:31;7.67;;;6.97;;
70075;SDS011;63241;51.056;3.698;2023-06-10T13:18:22;7.37;;;6.10;;
70075;SDS011;63241;51.056;3.698;2023-06-10T13:21:34;7.15;;;6.45;;
70075;SDS011;63241;51.056;3.698;2023-06-10T13:24:23;10.18;;;6.20;;
70075;SDS011;63241;51.056;3.698;2023-06-10T13:27:10;6.47;;;5.90;;
70075;SDS011;63241;51.056;3.698;2023-06-10T13:29:58;7.45;;;5.97;;
70075;SDS011;63241;51.056;3.698;2023-06-10T13:38:58;10.88;;;6.05;;
70075;SDS011;63241;51.056;3.698;2023-06-10T13:41:45;6.80;;;6.20;;
70075;SDS011;63241;51.056;3.698;2023-06-10T13:51:04;6.35;;;5.35;;
70075;SDS011;63241;51.056;3.698;2023-06-10T13:53:51;7.37;;;5.42;;
70075;SDS011;63241;51.056;3.698;2023-06-10T13:56:37;6.58;;;5.17;;
70075;SDS011;63241;51.056;3.698;2023-06-10T14:37:04;8.65;;;5.30;;
70075;SDS011;63241;51.056;3.698;2023-06-10T15:03:26;6.72;;;5.50;;
70075;SDS011;63241;51.056;3.698;2023-06-10T15:09:57;8.63;;;5.10;;
70075;SDS011;63241;51.056;3.698;2023-06-10T15:12:45;5.67;;;5.10;;
70075;SDS011;63241;51.056;3.698;2023-06-10T15:23:35;8.53;;;5.53;;
70075;SDS011;63241;51.056;3.698;2023-06-10T15:26:20;8.17;;;5.23;;
70075;SDS011;63241;51.056;3.698;2023-06-10T15:29:06;8.25;;;4.62;;
70075;SDS011;63241;51.056;3.698;2023-06-10T15:31:53;8.10;;;5.40;;
70075;SDS011;63241;51.056;3.698;2023-06-10T15:43:52;8.28;;;5.42;;
70075;SDS011;63241;51.056;3.698;2023-06-10T15:53:29;9.13;;;5.37;;
70075;SDS011;63241;51.056;3.698;2023-06-10T15:56:16;7.65;;;5.08;;
70075;SDS011;63241;51.056;3.698;2023-06-10T15:59:02;6.67;;;5.17;;
70075;SDS011;63241;51.056;3.698;2023-06-10T16:08:36;8.28;;;5.20;;
70075;SDS011;63241;51.056;3.698;2023-06-10T16:11:23;6.83;;;5.67;;
70075;SDS011;63241;51.056;3.698;2023-06-10T16:20:48;6.28;;;5.05;;
70075;SDS011;63241;51.056;3.698;2023-06-10T16:23:34;8.63;;;5.50;;
70075;SDS011;63241;51.056;3.698;2023-06-10T16:26:21;9.10;;;5.45;;
70075;SDS011;63241;51.056;3.698;2023-06-10T16:38:33;7.78;;;5.60;;
70075;SDS011;63241;51.056;3.698;2023-06-10T16:44:56;9.08;;;5.83;;
70075;SDS011;63241;51.056;3.698;2023-06-10T16:47:43;8.98;;;5.40;;
70075;SDS011;63241;51.056;3.698;2023-06-10T16:53:05;7.35;;;6.10;;
70075;SDS011;63241;51.056;3.698;2023-06-10T16:58:39;8.35;;;5.70;;
70075;SDS011;63241;51.056;3.698;2023-06-10T17:01:30;8.98;;;5.58;;
70075;SDS011;63241;51.056;3.698;2023-06-10T17:04:16;11.78;;;5.60;;
70075;SDS011;63241;51.056;3.698;2023-06-10T17:07:02;7.78;;;5.78;;
70075;SDS011;63241;51.056;3.698;2023-06-10T17:16:04;6.53;;;5.70;;
70075;SDS011;63241;51.056;3.698;2023-06-10T17:18:50;7.08;;;5.70;;
70075;SDS011;63241;51.056;3.698;2023-06-10T17:21:37;10.23;;;5.50;;
70075;SDS011;63241;51.056;3.698;2023-06-10T17:35:24;8.83;;;5.47;;
70075;SDS011;63241;51.056;3.698;2023-06-10T17:40:47;7.33;;;5.33;;
70075;SDS011;63241;51.056;3.698;2023-06-10T17:43:33;7.15;;;4.85;;
70075;SDS011;63241;51.056;3.698;2023-06-10T17:46:20;8.58;;;6.05;;
70075;SDS011;63241;51.056;3.698;2023-06-10T17:49:06;7.10;;;5.50;;
70075;SDS011;63241;51.056;3.698;2023-06-10T17:51:53;11.63;;;5.40;;
70075;SDS011;63241;51.056;3.698;2023-06-10T17:57:49;7.78;;;5.95;;
70075;SDS011;63241;51.056;3.698;2023-06-10T18:00:35;10.05;;;6.22;;
70075;SDS011;63241;51.056;3.698;2023-06-10T18:03:21;9.28;;;5.83;;
70075;SDS011;63241;51.056;3.698;2023-06-10T18:06:09;10.75;;;5.65;;
70075;SDS011;63241;51.056;3.698;2023-06-10T18:08:55;16.07;;;8.53;;
70075;SDS011;63241;51.056;3.698;2023-06-10T18:11:42;9.23;;;6.75;;
70075;SDS011;63241;51.056;3.698;2023-06-10T18:14:28;7.90;;;5.60;;
70075;SDS011;63241;51.056;3.698;2023-06-10T18:17:15;8.23;;;5.62;;
70075;SDS011;63241;51.056;3.698;2023-06-10T18:20:02;8.58;;;5.08;;
70075;SDS011;63241;51.056;3.698;2023-06-10T18:22:48;9.00;;;5.55;;
70075;SDS011;63241;51.056;3.698;2023-06-10T18:25:34;8.95;;;5.83;;
70075;SDS011;63241;51.056;3.698;2023-06-10T18:28:21;9.63;;;5.40;;
70075;SDS011;63241;51.056;3.698;2023-06-10T18:31:07;6.62;;;5.60;;
70075;SDS011;63241;51.056;3.698;2023-06-10T18:33:54;6.20;;;5.03;;
70075;SDS011;63241;51.056;3.698;2023-06-10T18:36:40;7.58;;;6.37;;
70075;SDS011;63241;51.056;3.698;2023-06-10T18:39:26;9.15;;;6.05;;
70075;SDS011;63241;51.056;3.698;2023-06-10T18:42:13;7.00;;;5.22;;
70075;SDS011;63241;51.056;3.698;2023-06-10T18:45:00;8.35;;;5.35;;
70075;SDS011;63241;51.056;3.698;2023-06-10T18:47:46;9.08;;;5.85;;
70075;SDS011;63241;51.056;3.698;2023-06-10T18:50:33;11.48;;;6.75;;
70075;SDS011;63241;51.056;3.698;2023-06-10T18:53:19;7.75;;;6.50;;
70075;SDS011;63241;51.056;3.698;2023-06-10T18:56:05;6.80;;;5.87;;
70075;SDS011;63241;51.056;3.698;2023-06-10T18:58:51;11.38;;;7.30;;
70075;SDS011;63241;51.056;3.698;2023-06-10T19:01:38;8.58;;;6.50;;
70075;SDS011;63241;51.056;3.698;2023-06-10T19:04:24;8.60;;;6.08;;
70075;SDS011;63241;51.056;3.698;2023-06-10T19:07:11;8.68;;;6.85;;
70075;SDS011;63241;51.056;3.698;2023-06-10T19:09:57;11.55;;;8.25;;
70075;SDS011;63241;51.056;3.698;2023-06-10T19:12:43;10.70;;;9.43;;
70075;SDS011;63241;51.056;3.698;2023-06-10T19:15:29;11.15;;;7.22;;
70075;SDS011;63241;51.056;3.698;2023-06-10T19:18:16;9.60;;;7.22;;
70075;SDS011;63241;51.056;3.698;2023-06-10T19:21:01;11.38;;;8.43;;
70075;SDS011;63241;51.056;3.698;2023-06-10T19:23:48;10.08;;;7.78;;
70075;SDS011;63241;51.056;3.698;2023-06-10T19:26:34;9.78;;;6.80;;
70075;SDS011;63241;51.056;3.698;2023-06-10T19:29:20;10.05;;;6.97;;
70075;SDS011;63241;51.056;3.698;2023-06-10T19:32:07;8.00;;;6.25;;
70075;SDS011;63241;51.056;3.698;2023-06-10T19:34:53;9.00;;;5.95;;
70075;SDS011;63241;51.056;3.698;2023-06-10T19:37:40;11.28;;;6.87;;
70075;SDS011;63241;51.056;3.698;2023-06-10T19:40:26;9.40;;;6.78;;
70075;SDS011;63241;51.056;3.698;2023-06-10T19:43:12;10.32;;;6.37;;
70075;SDS011;63241;51.056;3.698;2023-06-10T19:45:59;8.35;;;6.72;;
70075;SDS011;63241;51.056;3.698;2023-06-10T19:48:45;8.93;;;7.10;;
70075;SDS011;63241;51.056;3.698;2023-06-10T19:51:32;10.03;;;7.47;;
70075;SDS011;63241;51.056;3.698;2023-06-10T19:54:18;11.75;;;7.87;;
70075;SDS011;63241;51.056;3.698;2023-06-10T19:57:04;11.55;;;8.15;;
70075;SDS011;63241;51.056;3.698;2023-06-10T19:59:51;12.00;;;8.23;;
70075;SDS011;63241;51.056;3.698;2023-06-10T20:02:37;12.47;;;7.40;;
70075;SDS011;63241;51.056;3.698;2023-06-10T20:05:23;12.65;;;8.38;;
70075;SDS011;63241;51.056;3.698;2023-06-10T20:08:09;9.85;;;7.40;;
70075;SDS011;63241;51.056;3.698;2023-06-10T20:10:55;13.05;;;7.45;;
70075;SDS011;63241;51.056;3.698;2023-06-10T20:13:41;7.72;;;6.53;;
70075;SDS011;63241;51.056;3.698;2023-06-10T20:16:28;9.75;;;6.53;;
70075;SDS011;63241;51.056;3.698;2023-06-10T20:19:14;12.23;;;7.80;;
70075;SDS011;63241;51.056;3.698;2023-06-10T20:22:01;12.50;;;7.83;;
70075;SDS011;63241;51.056;3.698;2023-06-10T20:24:49;11.33;;;8.33;;
70075;SDS011;63241;51.056;3.698;2023-06-10T20:27:36;10.03;;;7.53;;
70075;SDS011;63241;51.056;3.698;2023-06-10T20:30:22;9.95;;;7.45;;
70075;SDS011;63241;51.056;3.698;2023-06-10T20:33:08;8.90;;;7.40;;
70075;SDS011;63241;51.056;3.698;2023-06-10T20:35:54;12.98;;;7.92;;
70075;SDS011;63241;51.056;3.698;2023-06-10T20:38:41;11.95;;;7.75;;
70075;SDS011;63241;51.056;3.698;2023-06-10T20:41:27;11.43;;;7.67;;
70075;SDS011;63241;51.056;3.698;2023-06-10T20:44:13;14.43;;;7.45;;
70075;SDS011;63241;51.056;3.698;2023-06-10T20:47:00;13.08;;;8.25;;
70075;SDS011;63241;51.056;3.698;2023-06-10T20:49:46;13.05;;;7.40;;
70075;SDS011;63241;51.056;3.698;2023-06-10T20:52:33;9.55;;;7.40;;
70075;SDS011;63241;51.056;3.698;2023-06-10T20:55:19;11.65;;;7.17;;
70075;SDS011;63241;51.056;3.698;2023-06-10T20:58:06;31.25;;;9.10;;
70075;SDS011;63241;51.056;3.698;2023-06-10T21:00:52;11.03;;;7.65;;
70075;SDS011;63241;51.056;3.698;2023-06-10T21:03:38;11.60;;;8.18;;
70075;SDS011;63241;51.056;3.698;2023-06-10T21:06:24;11.45;;;7.87;;
70075;SDS011;63241;51.056;3.698;2023-06-10T21:09:11;10.38;;;7.80;;
70075;SDS011;63241;51.056;3.698;2023-06-10T21:11:57;9.83;;;7.45;;
70075;SDS011;63241;51.056;3.698;2023-06-10T21:14:43;9.58;;;7.45;;
70075;SDS011;63241;51.056;3.698;2023-06-10T21:17:29;16.87;;;7.90;;
70075;SDS011;63241;51.056;3.698;2023-06-10T21:20:15;12.80;;;9.00;;
70075;SDS011;63241;51.056;3.698;2023-06-10T21:23:01;11.30;;;8.00;;
70075;SDS011;63241;51.056;3.698;2023-06-10T21:25:47;9.93;;;7.58;;
70075;SDS011;63241;51.056;3.698;2023-06-10T21:28:34;16.65;;;8.80;;
70075;SDS011;63241;51.056;3.698;2023-06-10T21:31:20;12.20;;;8.60;;
70075;SDS011;63241;51.056;3.698;2023-06-10T21:34:08;14.13;;;8.65;;
70075;SDS011;63241;51.056;3.698;2023-06-10T21:36:54;15.08;;;8.33;;
70075;SDS011;63241;51.056;3.698;2023-06-10T21:39:41;12.43;;;7.92;;
70075;SDS011;63241;51.056;3.698;2023-06-10T21:42:28;15.13;;;8.53;;
70075;SDS011;63241;51.056;3.698;2023-06-10T21:45:14;11.83;;;8.93;;
70075;SDS011;63241;51.056;3.698;2023-06-10T21:48:01;11.60;;;8.45;;
70075;SDS011;63241;51.056;3.698;2023-06-10T21:50:47;11.80;;;8.13;;
70075;SDS011;63241;51.056;3.698;2023-06-10T21:53:34;14.07;;;8.13;;
70075;SDS011;63241;51.056;3.698;2023-06-10T21:56:19;11.63;;;8.05;;
70075;SDS011;63241;51.056;3.698;2023-06-10T21:59:05;14.23;;;8.20;;
70075;SDS011;63241;51.056;3.698;2023-06-10T22:01:52;9.70;;;8.05;;
70075;SDS011;63241;51.056;3.698;2023-06-10T22:04:38;14.45;;;8.83;;
70075;SDS011;63241;51.056;3.698;2023-06-10T22:07:25;11.85;;;8.78;;
70075;SDS011;63241;51.056;3.698;2023-06-10T22:10:11;15.15;;;8.90;;
70075;SDS011;63241;51.056;3.698;2023-06-10T22:12:58;13.62;;;8.78;;
70075;SDS011;63241;51.056;3.698;2023-06-10T22:15:44;12.65;;;7.62;;
70075;SDS011;63241;51.056;3.698;2023-06-10T22:18:30;11.35;;;8.13;;
70075;SDS011;63241;51.056;3.698;2023-06-10T22:21:17;13.72;;;9.18;;
70075;SDS011;63241;51.056;3.698;2023-06-10T22:24:03;12.98;;;9.05;;
70075;SDS011;63241;51.056;3.698;2023-06-10T22:26:50;13.28;;;9.45;;
70075;SDS011;63241;51.056;3.698;2023-06-10T22:29:36;11.57;;;8.30;;
70075;SDS011;63241;51.056;3.698;2023-06-10T22:32:22;12.90;;;8.88;;
70075;SDS011;63241;51.056;3.698;2023-06-10T22:35:09;12.65;;;8.70;;
70075;SDS011;63241;51.056;3.698;2023-06-10T22:37:56;9.73;;;8.10;;
70075;SDS011;63241;51.056;3.698;2023-06-10T22:40:42;11.05;;;8.25;;
70075;SDS011;63241;51.056;3.698;2023-06-10T22:43:28;11.40;;;8.40;;
70075;SDS011;63241;51.056;3.698;2023-06-10T22:46:14;12.35;;;7.80;;
70075;SDS011;63241;51.056;3.698;2023-06-10T22:49:01;20.32;;;9.85;;
70075;SDS011;63241;51.056;3.698;2023-06-10T22:51:47;10.95;;;7.85;;
70075;SDS011;63241;51.056;3.698;2023-06-10T22:54:33;13.60;;;8.58;;
70075;SDS011;63241;51.056;3.698;2023-06-10T22:57:19;11.05;;;8.23;;
70075;SDS011;63241;51.056;3.698;2023-06-10T23:00:05;11.57;;;7.85;;
70075;SDS011;63241;51.056;3.698;2023-06-10T23:02:52;9.88;;;8.43;;
70075;SDS011;63241;51.056;3.698;2023-06-10T23:05:38;9.20;;;8.13;;
70075;SDS011;63241;51.056;3.698;2023-06-10T23:08:24;14.30;;;7.97;;
70075;SDS011;63241;51.056;3.698;2023-06-10T23:11:11;11.50;;;8.10;;
70075;SDS011;63241;51.056;3.698;2023-06-10T23:13:57;11.65;;;8.43;;
70075;SDS011;63241;51.056;3.698;2023-06-10T23:16:43;11.10;;;8.43;;
70075;SDS011;63241;51.056;3.698;2023-06-10T23:19:32;14.87;;;8.10;;
70075;SDS011;63241;51.056;3.698;2023-06-10T23:22:20;10.68;;;7.85;;
70075;SDS011;63241;51.056;3.698;2023-06-10T23:25:07;12.13;;;8.18;;
70075;SDS011;63241;51.056;3.698;2023-06-10T23:27:54;15.63;;;8.58;;
70075;SDS011;63241;51.056;3.698;2023-06-10T23:30:41;12.70;;;8.15;;
70075;SDS011;63241;51.056;3.698;2023-06-10T23:33:27;12.88;;;9.10;;
70075;SDS011;63241;51.056;3.698;2023-06-10T23:36:14;9.55;;;7.65;;
70075;SDS011;63241;51.056;3.698;2023-06-10T23:39:03;10.82;;;8.40;;
70075;SDS011;63241;51.056;3.698;2023-06-10T23:41:49;12.58;;;8.50;;
70075;SDS011;63241;51.056;3.698;2023-06-10T23:44:35;15.30;;;8.65;;
70075;SDS011;63241;51.056;3.698;2023-06-10T23:47:22;13.40;;;8.10;;
70075;SDS011;63241;51.056;3.698;2023-06-10T23:50:08;13.03;;;8.63;;
70075;SDS011;63241;51.056;3.698;2023-06-10T23:52:55;12.63;;;8.60;;
70075;SDS011;63241;51.056;3.698;2023-06-10T23:55:41;9.38;;;7.67;;
70075;SDS011;63241;51.056;3.698;2023-06-10T23:58:27;11.45;;;8.20;;
